Time;durP1;ratioP1;P1;durP2;ratioP2;P2;SDS_P1;SDS_P2;PMS_P1;PMS_P2;Temp;Humidity;BMP_temperature;BMP_pressure;BME280_temperature;BME280_humidity;BME280_pressure;Samples;Min_cycle;Max_cycle;Signal;HPM_P1;HPM_P2
2023/06/28 00:00:20;;;;;;;4.50;2.20;;;18.80;63.60;;;17.94;72.13;96083.78;4987968;28;20027;-68
2023/06/28 00:02:45;;;;;;;4.35;2.63;;;18.80;63.00;;;17.94;72.30;96098.94;5017344;28;20026;-67
2023/06/28 00:05:12;;;;;;;6.20;2.67;;;18.80;63.60;;;17.95;73.35;96111.22;4976436;28;20560;-66
2023/06/28 00:07:38;;;;;;;4.10;2.67;;;18.90;64.50;;;17.93;73.57;96116.78;4995435;28;20027;-67
2023/06/28 00:10:04;;;;;;;3.65;2.15;;;18.90;64.40;;;17.94;73.04;96122.91;4982790;28;20084;-67
2023/06/28 00:12:31;;;;;;;5.18;2.30;;;18.90;63.00;;;17.91;74.08;96121.53;4980915;28;20413;-67
2023/06/28 00:14:57;;;;;;;4.85;2.42;;;18.80;64.30;;;17.85;72.31;96126.94;4974804;28;20121;-66
2023/06/28 00:17:27;;;;;;;5.78;2.67;;;18.80;62.20;;;17.81;73.22;96120.47;4978146;28;20482;-66
2023/06/28 00:19:57;;;;;;;5.22;2.75;;;18.70;63.60;;;17.77;72.80;96124.66;4994099;28;20026;-67
2023/06/28 00:22:29;;;;;;;6.57;2.50;;;18.70;63.40;;;17.69;73.31;96126.63;4963656;28;20452;-68
2023/06/28 00:25:07;;;;;;;5.25;2.63;;;18.60;64.20;;;17.63;74.23;96140.81;4994274;28;20026;-67
2023/06/28 00:27:33;;;;;;;5.65;2.45;;;18.60;64.30;;;17.59;74.36;96146.84;4964824;28;20125;-67
2023/06/28 00:29:59;;;;;;;5.03;2.28;;;18.60;64.90;;;17.57;74.82;96135.63;4961670;28;20095;-67
2023/06/28 00:32:25;;;;;;;5.28;2.72;;;18.50;65.20;;;17.54;74.61;96130.78;5010079;28;20037;-68
2023/06/28 00:34:50;;;;;;;7.95;2.70;;;18.50;65.20;;;17.53;75.56;96145.91;4971874;28;20049;-69
2023/06/28 00:37:16;;;;;;;5.95;2.60;;;18.50;65.20;;;17.46;75.21;96134.59;4960965;28;20041;-67
2023/06/28 00:39:42;;;;;;;3.63;2.50;;;18.40;64.10;;;17.43;73.32;96140.38;4989332;28;20124;-67
2023/06/28 00:42:08;;;;;;;5.40;2.30;;;18.40;62.70;;;17.40;73.30;96146.94;4979969;28;20041;-68
2023/06/28 00:44:34;;;;;;;4.25;2.45;;;18.40;62.70;;;17.34;73.03;96147.06;4989001;28;20030;-67
2023/06/28 00:47:00;;;;;;;6.25;2.65;;;18.30;62.50;;;17.30;72.27;96153.88;4944331;28;20127;-66
2023/06/28 00:49:28;;;;;;;4.68;2.40;;;18.30;61.80;;;17.31;72.19;96158.97;4994164;28;20394;-66
2023/06/28 00:51:54;;;;;;;4.80;2.35;;;18.30;61.80;;;17.29;72.55;96160.25;4987626;28;20034;-67
2023/06/28 00:54:20;;;;;;;3.03;2.03;;;18.30;62.60;;;17.29;72.17;96158.41;4992337;28;20034;-67
2023/06/28 00:56:47;;;;;;;6.82;2.60;;;18.30;62.50;;;17.23;72.48;96169.16;4957915;28;20045;-67
2023/06/28 00:59:13;;;;;;;5.03;2.40;;;18.20;62.90;;;17.22;72.90;96172.84;4973372;28;20033;-66
2023/06/28 01:01:39;;;;;;;4.63;2.10;;;18.20;63.50;;;17.20;73.47;96183.72;4983419;28;20038;-66
2023/06/28 01:04:06;;;;;;;6.10;2.50;;;18.20;63.70;;;17.15;74.23;96186.22;4979821;28;20030;-68
2023/06/28 01:06:35;;;;;;;6.78;2.38;;;18.20;64.50;;;17.12;74.22;96192.78;4992251;28;20510;-66
2023/06/28 01:09:04;;;;;;;4.05;2.10;;;18.10;64.00;;;17.08;75.21;96207.59;4976055;28;20042;-65
2023/06/28 01:11:31;;;;;;;4.72;2.38;;;18.00;65.10;;;17.04;74.22;96210.94;4938508;28;20077;-67
2023/06/28 01:14:01;;;;;;;4.50;2.10;;;18.00;64.20;;;16.99;73.95;96211.63;4941170;28;20060;-66
2023/06/28 01:16:26;;;;;;;6.97;2.20;;;17.90;63.30;;;16.89;73.26;96208.66;4970565;28;20066;-66
2023/06/28 01:18:52;;;;;;;4.05;2.00;;;17.70;62.80;;;16.85;73.51;96218.13;4961831;28;20702;-67
2023/06/28 01:21:18;;;;;;;3.63;2.05;;;17.60;64.10;;;16.80;74.22;96218.81;4985626;28;20383;-66
2023/06/28 01:23:45;;;;;;;4.28;2.22;;;17.70;64.50;;;16.74;74.39;96218.88;4974516;28;20022;-66
2023/06/28 01:26:11;;;;;;;4.40;2.10;;;17.60;64.60;;;16.65;74.87;96222.84;4966537;28;20069;-67
2023/06/28 01:28:37;;;;;;;4.57;1.90;;;17.50;64.80;;;16.62;76.01;96228.63;4963603;28;20027;-67
2023/06/28 01:31:05;;;;;;;6.97;2.15;;;17.60;65.90;;;16.57;76.64;96252.38;4956710;28;20042;-66
2023/06/28 01:33:31;;;;;;;5.53;2.50;;;17.40;66.70;;;16.49;76.55;96248.97;4972717;28;20034;-66
2023/06/28 01:35:57;;;;;;;4.03;1.98;;;17.40;66.30;;;16.43;76.83;96246.41;4977907;28;20041;-67
2023/06/28 01:38:23;;;;;;;5.40;2.20;;;17.30;66.40;;;16.35;78.16;96242.22;4940731;28;20398;-66
2023/06/28 01:40:49;;;;;;;5.47;2.45;;;17.30;67.80;;;16.31;78.64;96238.38;4968155;28;20047;-66
2023/06/28 01:43:15;;;;;;;6.55;2.30;;;17.20;67.80;;;16.24;79.93;96242.94;4973938;28;20382;-66
2023/06/28 01:45:41;;;;;;;4.47;2.22;;;17.10;69.20;;;16.21;81.54;96243.38;4963525;28;20030;-66
2023/06/28 01:48:06;;;;;;;7.57;2.42;;;17.20;69.40;;;16.16;82.03;96251.19;4981012;28;20034;-66
2023/06/28 01:50:32;;;;;;;7.75;2.53;;;17.10;69.80;;;16.10;83.32;96241.47;4977315;28;20030;-67
2023/06/28 01:53:00;;;;;;;5.57;2.78;;;17.00;70.40;;;16.05;83.95;96241.28;4995802;28;20459;-66
2023/06/28 01:55:26;;;;;;;6.60;2.80;;;17.00;70.70;;;16.03;84.66;96251.31;5007812;28;20027;-66
2023/06/28 01:57:52;;;;;;;4.90;2.50;;;17.00;71.00;;;15.98;85.37;96254.63;4973751;28;20121;-66
2023/06/28 02:00:18;;;;;;;5.57;2.85;;;16.90;71.80;;;15.92;86.16;96256.34;4975930;28;20066;-66
2023/06/28 02:02:44;;;;;;;4.75;2.60;;;16.80;72.60;;;15.86;87.89;96246.59;4967198;28;20076;-66
2023/06/28 02:05:09;;;;;;;3.85;2.55;;;16.80;73.50;;;15.81;89.51;96251.72;4963410;28;20442;-67
2023/06/28 02:07:35;;;;;;;7.18;2.85;;;16.80;74.10;;;15.80;89.95;96251.94;4956948;28;20577;-67
2023/06/28 02:10:01;;;;;;;4.85;2.92;;;16.80;74.30;;;15.76;90.83;96251.56;4977228;28;20031;-67
2023/06/28 02:12:27;;;;;;;6.45;2.80;;;16.70;74.20;;;15.70;92.83;96247.13;4981906;28;20113;-68
2023/06/28 02:14:52;;;;;;;4.07;2.55;;;16.70;74.90;;;15.68;93.58;96243.91;4958651;28;20047;-67
2023/06/28 02:17:20;;;;;;;4.40;3.08;;;16.70;74.80;;;15.68;94.25;96246.56;4989227;28;20073;-65
2023/06/28 02:19:47;;;;;;;6.88;3.20;;;16.70;75.10;;;15.63;94.86;96238.44;4993071;28;20049;-67
2023/06/28 02:22:14;;;;;;;5.88;3.00;;;16.60;75.30;;;15.62;95.70;96242.13;4963911;28;20033;-66
2023/06/28 02:24:39;;;;;;;4.53;2.95;;;16.60;75.60;;;15.58;95.38;96235.56;4959320;28;20038;-66
2023/06/28 02:27:05;;;;;;;9.00;5.38;;;16.60;75.60;;;15.56;96.73;96235.78;5000955;28;20114;-67
2023/06/28 02:29:31;;;;;;;5.95;3.75;;;16.60;75.70;;;15.53;96.99;96235.41;4987908;28;20503;-66
2023/06/28 02:31:57;;;;;;;26.58;18.17;;;16.60;75.20;;;15.50;96.76;96235.84;4957301;28;20142;-66
2023/06/28 02:34:23;;;;;;;8.13;5.63;;;16.50;75.50;;;15.45;96.33;96241.00;4952446;28;20037;-66
2023/06/28 02:36:50;;;;;;;11.13;8.45;;;16.50;74.80;;;15.37;96.55;96251.84;4971172;28;20089;-66
2023/06/28 02:39:16;;;;;;;11.80;9.50;;;16.40;75.10;;;15.35;97.71;96254.72;4987542;28;20438;-66
2023/06/28 02:41:42;;;;;;;12.85;7.70;;;16.40;75.50;;;15.32;97.86;96255.16;4976891;28;20030;-67
2023/06/28 02:44:07;;;;;;;8.50;6.07;;;16.40;75.60;;;15.29;97.37;96248.44;4979475;28;20042;-65
2023/06/28 02:46:33;;;;;;;7.10;4.03;;;16.40;75.70;;;15.27;97.41;96250.50;4990197;28;20041;-69
2023/06/28 02:48:59;;;;;;;4.07;3.30;;;16.40;75.20;;;15.27;97.92;96247.84;4974926;28;20073;-69
2023/06/28 02:51:25;;;;;;;5.35;4.13;;;16.40;75.50;;;15.28;96.90;96254.78;4957706;28;20034;-67
2023/06/28 02:53:51;;;;;;;8.38;4.57;;;16.30;75.10;;;15.30;96.97;96257.19;4983134;28;20057;-66
2023/06/28 02:56:16;;;;;;;16.48;12.88;;;16.40;75.20;;;15.30;98.69;96257.19;4990668;28;20035;-67
2023/06/28 02:58:42;;;;;;;18.80;12.77;;;16.40;75.50;;;15.29;98.59;96255.59;4977437;28;20078;-66
2023/06/28 03:01:09;;;;;;;12.48;8.48;;;16.40;75.30;;;15.29;97.37;96256.38;4971347;28;20038;-69
2023/06/28 03:03:35;;;;;;;6.40;4.68;;;16.40;75.30;;;15.28;98.17;96252.13;4977220;28;20088;-67
2023/06/28 03:06:01;;;;;;;22.88;19.35;;;16.40;75.90;;;15.25;99.93;96249.91;4995340;28;20069;-66
2023/06/28 03:08:26;;;;;;;13.82;9.50;;;16.40;75.80;;;15.26;99.97;96243.56;4999277;28;20391;-66
2023/06/28 03:10:52;;;;;;;10.05;7.13;;;16.40;75.70;;;15.24;98.88;96242.97;4975520;28;20045;-66
2023/06/28 03:13:18;;;;;;;8.82;4.70;;;16.40;75.90;;;15.22;99.87;96245.03;4997465;28;20041;-66
2023/06/28 03:15:44;;;;;;;6.25;4.00;;;16.40;75.90;;;15.23;100.00;96251.16;4986114;28;20030;-68
2023/06/28 03:18:09;;;;;;;5.32;3.22;;;16.30;76.40;;;15.24;100.00;96253.56;4999769;28;20034;-66
2023/06/28 03:20:35;;;;;;;9.32;3.78;;;16.40;75.90;;;15.18;100.00;96240.38;5000247;28;20112;-67
2023/06/28 03:23:03;;;;;;;5.03;3.45;;;16.30;75.30;;;15.16;99.37;96240.59;5012449;28;20034;-67
2023/06/28 03:25:29;;;;;;;6.05;3.55;;;16.30;75.20;;;15.12;98.72;96243.88;5007137;28;20030;-68
2023/06/28 03:27:55;;;;;;;6.80;3.33;;;16.30;75.10;;;15.13;99.78;96241.00;4959772;28;20519;-67
2023/06/28 03:30:21;;;;;;;6.00;3.60;;;16.30;75.40;;;15.14;99.82;96239.97;4975018;28;20402;-66
2023/06/28 03:32:47;;;;;;;7.55;3.17;;;16.30;75.80;;;15.12;99.67;96230.63;5002433;28;20046;-66
2023/06/28 03:35:15;;;;;;;5.97;3.15;;;16.30;75.90;;;15.07;100.00;96228.63;5005915;28;20118;-66
2023/06/28 03:37:57;;;;;;;7.38;4.00;;;16.20;76.00;;;15.05;100.00;96222.72;4980856;28;20022;-66
2023/06/28 03:40:23;;;;;;;8.25;6.30;;;16.20;76.00;;;15.02;100.00;96217.84;5004459;28;20034;-68
2023/06/28 03:42:49;;;;;;;14.73;12.55;;;16.20;75.90;;;15.02;100.00;96212.56;4964783;28;20086;-66
2023/06/28 03:45:15;;;;;;;13.80;10.10;;;16.10;76.20;;;15.04;100.00;96213.16;4969883;28;20026;-66
2023/06/28 03:47:43;;;;;;;9.52;5.10;;;16.10;76.40;;;15.05;100.00;96214.78;4969264;28;20069;-66
2023/06/28 03:50:09;;;;;;;4.93;4.03;;;16.10;76.80;;;15.05;100.00;96222.72;4989206;28;20031;-66
2023/06/28 03:52:35;;;;;;;6.60;4.30;;;16.20;76.70;;;15.07;100.00;96215.38;4976907;28;20033;-67
2023/06/28 03:55:02;;;;;;;5.53;3.78;;;16.20;77.30;;;15.08;100.00;96209.03;4998387;28;20046;-66
2023/06/28 03:57:29;;;;;;;6.28;3.63;;;16.20;77.10;;;15.08;100.00;96213.53;4967999;28;20034;-65
2023/06/28 03:59:58;;;;;;;14.23;12.02;;;16.20;76.50;;;15.11;100.00;96211.25;4975721;28;20120;-65
2023/06/28 04:02:23;;;;;;;13.70;10.43;;;16.30;76.50;;;15.10;100.00;96214.13;4983198;28;20037;-66
2023/06/28 04:04:49;;;;;;;7.70;6.22;;;16.20;76.40;;;15.09;100.00;96208.00;4979922;28;20066;-65
2023/06/28 04:07:15;;;;;;;6.95;5.00;;;16.30;76.80;;;15.10;100.00;96204.34;4966191;28;20096;-66
2023/06/28 04:09:42;;;;;;;7.50;4.05;;;16.20;77.30;;;15.12;100.00;96206.78;4984166;28;20033;-66
2023/06/28 04:12:10;;;;;;;6.40;4.13;;;16.20;77.20;;;15.10;100.00;96214.13;4992669;28;20038;-66
2023/06/28 04:14:36;;;;;;;5.50;3.70;;;16.10;77.40;;;15.06;100.00;96207.63;4991447;28;20119;-65
2023/06/28 04:17:02;;;;;;;6.30;3.78;;;16.10;77.20;;;15.04;100.00;96215.00;4983475;28;20035;-65
2023/06/28 04:19:28;;;;;;;6.95;3.97;;;16.10;77.50;;;15.01;100.00;96210.94;4963668;28;20378;-65
2023/06/28 04:21:54;;;;;;;5.60;3.40;;;16.10;77.50;;;15.01;100.00;96210.94;4979167;28;20085;-66
2023/06/28 04:24:19;;;;;;;7.20;4.20;;;16.10;77.70;;;15.01;100.00;96213.59;4998134;28;20088;-65
2023/06/28 04:26:45;;;;;;;6.18;3.63;;;16.20;77.40;;;15.03;100.00;96214.19;4990547;28;20030;-66
2023/06/28 04:29:11;;;;;;;6.95;4.03;;;16.20;77.50;;;15.05;100.00;96212.13;4983957;28;20034;-65
2023/06/28 04:31:37;;;;;;;5.10;3.70;;;16.20;76.90;;;15.01;100.00;96218.88;4974861;28;20058;-68
2023/06/28 04:34:02;;;;;;;5.50;3.63;;;16.10;77.10;;;15.02;100.00;96212.56;4967851;28;20030;-67
2023/06/28 04:36:28;;;;;;;6.50;3.92;;;16.20;77.30;;;15.00;100.00;96217.25;5009789;28;20041;-65
2023/06/28 04:38:54;;;;;;;7.15;3.97;;;16.10;77.10;;;14.97;100.00;96215.03;4998556;28;20077;-67
2023/06/28 04:41:23;;;;;;;6.13;4.13;;;16.10;77.50;;;15.00;100.00;96214.59;5006307;28;20034;-67
2023/06/28 04:43:55;;;;;;;6.32;3.83;;;16.10;77.60;;;14.99;100.00;96219.09;4982737;28;20117;-69
2023/06/28 04:46:26;;;;;;;7.70;4.30;;;16.10;77.40;;;15.00;100.00;96219.91;4988467;28;20095;-65
2023/06/28 04:48:52;;;;;;;5.93;3.92;;;16.20;77.20;;;15.04;100.00;96226.41;4983802;28;20062;-66
2023/06/28 04:51:19;;;;;;;6.65;3.90;;;16.20;77.40;;;15.04;100.00;96231.69;4978666;28;20030;-67
2023/06/28 04:53:46;;;;;;;5.18;3.60;;;16.20;77.80;;;15.07;100.00;96230.44;4992183;28;20034;-65
2023/06/28 04:56:11;;;;;;;6.15;4.05;;;16.30;77.80;;;15.10;100.00;96224.72;4988776;28;20034;-67
2023/06/28 04:58:37;;;;;;;6.22;4.07;;;16.30;78.00;;;15.14;100.00;96224.06;4998782;28;20457;-65
2023/06/28 05:01:13;;;;;;;6.03;3.95;;;16.40;77.70;;;15.13;100.00;96222.44;4995635;28;20121;-68
2023/06/28 05:03:39;;;;;;;7.15;4.07;;;16.40;77.30;;;15.13;100.00;96222.44;4989927;28;20345;-67
2023/06/28 05:06:08;;;;;;;6.63;4.07;;;16.30;77.20;;;15.12;100.00;96218.19;4956299;28;20066;-66
2023/06/28 05:08:34;;;;;;;9.18;4.35;;;16.30;77.30;;;15.16;100.00;96219.41;4984789;28;20328;-65
2023/06/28 05:11:01;;;;;;;8.13;4.40;;;16.30;77.30;;;15.16;100.00;96211.44;4999273;28;20026;-67
2023/06/28 05:13:26;;;;;;;6.13;4.05;;;16.30;77.30;;;15.16;100.00;96213.25;4990205;28;20131;-67
2023/06/28 05:15:52;;;;;;;8.15;4.65;;;16.30;77.40;;;15.15;100.00;96215.09;4981436;28;20137;-67
2023/06/28 05:18:18;;;;;;;6.10;4.38;;;16.30;77.60;;;15.16;100.00;96211.44;4984258;28;20545;-67
2023/06/28 05:20:44;;;;;;;6.88;4.40;;;16.30;77.50;;;15.16;100.00;96213.25;5005900;28;20027;-67
2023/06/28 05:23:18;;;;;;;8.82;4.55;;;16.30;77.70;;;15.18;100.00;96212.03;4991447;28;20058;-66
2023/06/28 05:25:44;;;;;;;7.25;4.32;;;16.30;77.70;;;15.18;100.00;96222.66;4980973;28;20058;-64
2023/06/28 05:28:12;;;;;;;9.07;4.68;;;16.30;77.70;;;15.22;100.00;96218.53;5004992;28;20066;-65
2023/06/28 05:30:41;;;;;;;5.93;4.22;;;16.40;77.70;;;15.22;100.00;96218.53;4994424;28;20061;-65
2023/06/28 05:33:06;;;;;;;5.70;4.57;;;16.40;77.20;;;15.19;100.00;96216.31;4963132;28;20072;-66
2023/06/28 05:35:32;;;;;;;7.07;4.28;;;16.40;77.50;;;15.20;100.00;96215.28;4975962;28;20421;-66
2023/06/28 05:38:02;;;;;;;7.80;4.68;;;16.40;77.20;;;15.26;100.00;96219.72;4965532;28;20061;-66
2023/06/28 05:40:29;;;;;;;8.63;4.20;;;16.50;77.10;;;15.27;100.00;96218.69;4999843;28;20450;-67
2023/06/28 05:42:55;;;;;;;7.70;4.22;;;16.50;76.70;;;15.29;100.00;96214.00;4988635;28;20270;-65
2023/06/28 05:45:24;;;;;;;6.80;4.13;;;16.60;76.80;;;15.35;100.00;96212.31;4970126;28;20489;-67
2023/06/28 05:47:50;;;;;;;7.40;4.35;;;16.60;76.50;;;15.43;100.00;96216.56;4980681;28;20041;-65
2023/06/28 05:50:21;;;;;;;7.03;4.43;;;16.80;76.50;;;15.47;100.00;96217.72;4986048;28;20455;-67
2023/06/28 05:52:48;;;;;;;9.65;4.35;;;16.70;76.40;;;15.48;100.00;96211.41;4981104;28;20092;-65
2023/06/28 05:55:13;;;;;;;7.40;4.75;;;16.80;76.20;;;15.53;100.00;96214.22;4993138;28;20092;-67
2023/06/28 05:57:40;;;;;;;7.47;4.30;;;16.90;76.50;;;15.57;100.00;96204.78;4957002;28;20035;-66
2023/06/28 06:00:10;;;;;;;7.07;4.20;;;16.90;75.90;;;15.61;100.00;96206.00;4970865;28;20489;-67
2023/06/28 06:02:35;;;;;;;7.00;3.88;;;17.00;75.70;;;15.66;100.00;96210.69;4956885;28;20041;-65
2023/06/28 06:05:02;;;;;;;8.70;3.72;;;17.00;74.90;;;15.68;100.00;96213.91;4970657;28;20121;-65
2023/06/28 06:07:28;;;;;;;7.50;4.18;;;17.00;74.80;;;15.74;100.00;96216.50;4972929;28;20052;-64
2023/06/28 06:09:54;;;;;;;4.43;3.85;;;17.10;75.20;;;15.78;100.00;96217.69;4988800;28;20042;-67
2023/06/28 06:12:20;;;;;;;6.82;4.55;;;17.10;75.00;;;15.80;100.00;96215.63;4969813;28;20130;-65
2023/06/28 06:14:50;;;;;;;6.97;4.45;;;17.10;74.90;;;15.85;100.00;96215.81;4987920;28;20065;-65
2023/06/28 06:17:17;;;;;;;6.57;4.10;;;17.20;74.50;;;15.89;100.00;96214.31;4962243;28;20037;-65
2023/06/28 06:19:42;;;;;;;5.93;3.97;;;17.30;73.60;;;15.91;100.00;96209.59;4972086;28;20108;-64
2023/06/28 06:22:11;;;;;;;5.88;3.97;;;17.30;73.60;;;15.98;100.00;96206.06;4986572;28;20450;-65
2023/06/28 06:24:37;;;;;;;6.72;4.25;;;17.50;74.00;;;16.06;100.00;96200.47;4972053;28;20041;-67
2023/06/28 06:27:06;;;;;;;7.55;4.35;;;17.60;73.50;;;16.10;100.00;96209.63;4953677;28;20030;-65
2023/06/28 06:29:31;;;;;;;5.53;4.10;;;17.50;72.50;;;16.08;100.00;96206.38;4983587;28;20104;-65
2023/06/28 06:31:57;;;;;;;6.72;3.70;;;17.40;72.30;;;16.04;99.39;96211.28;4975289;28;20030;-65
2023/06/28 06:34:23;;;;;;;6.63;4.00;;;17.30;72.90;;;16.05;100.00;96212.09;4985725;28;20165;-66
2023/06/28 06:36:49;;;;;;;6.18;3.33;;;17.40;73.40;;;16.11;99.25;96212.06;4961616;28;20038;-68
2023/06/28 06:39:15;;;;;;;6.45;4.18;;;17.60;72.70;;;16.21;100.00;96208.88;4987601;28;20029;-66
2023/06/28 06:41:40;;;;;;;7.75;4.32;;;17.70;72.30;;;16.30;99.70;96210.22;4975584;28;20026;-66
2023/06/28 06:44:06;;;;;;;8.57;4.10;;;17.90;71.80;;;16.44;99.78;96208.22;4987334;28;20034;-67
2023/06/28 06:46:32;;;;;;;5.72;3.80;;;18.10;71.60;;;16.60;100.00;96209.44;4956409;28;20038;-67
2023/06/28 06:48:58;;;;;;;5.30;3.60;;;18.40;71.70;;;16.75;99.49;96208.06;4955867;28;20094;-66
2023/06/28 06:51:23;;;;;;;8.43;3.78;;;18.60;70.50;;;16.87;98.16;96205.44;4955191;28;20117;-67
2023/06/28 06:53:49;;;;;;;5.25;3.45;;;18.60;69.50;;;16.97;96.66;96211.00;4955884;28;20046;-67
2023/06/28 06:56:21;;;;;;;4.97;3.20;;;18.70;68.90;;;17.08;95.56;96207.59;4966371;28;20030;-68
2023/06/28 06:58:47;;;;;;;6.15;3.60;;;18.80;68.40;;;17.12;94.28;96216.72;4961460;28;20041;-67
2023/06/28 07:01:13;;;;;;;6.72;3.17;;;18.70;67.60;;;17.21;93.21;96216.41;4953791;28;20615;-67
2023/06/28 07:03:39;;;;;;;8.40;3.60;;;18.90;68.20;;;17.31;92.77;96220.13;4939823;28;20431;-65
2023/06/28 07:06:05;;;;;;;8.13;4.97;;;18.90;67.30;;;17.43;93.00;96222.81;4978865;28;20037;-65
2023/06/28 07:08:31;;;;;;;6.10;3.65;;;19.20;68.00;;;17.50;91.38;96220.03;4991499;28;20040;-65
2023/06/28 07:10:57;;;;;;;5.60;3.78;;;19.30;66.80;;;17.58;91.84;96217.84;4955124;28;20066;-66
2023/06/28 07:13:23;;;;;;;6.50;3.63;;;19.30;66.90;;;17.68;91.13;96226.13;4969964;28;20035;-66
2023/06/28 07:15:48;;;;;;;7.03;3.70;;;19.40;67.00;;;17.74;90.88;96219.06;4972425;28;20096;-68
2023/06/28 07:18:15;;;;;;;5.15;3.60;;;19.50;66.10;;;17.79;90.11;96224.50;4957003;28;20038;-65
2023/06/28 07:20:40;;;;;;;5.68;3.45;;;19.50;66.10;;;17.85;88.63;96223.56;4958357;28;20446;-66
2023/06/28 07:23:06;;;;;;;4.57;3.17;;;19.50;65.20;;;17.85;88.70;96228.06;4964193;28;20045;-65
2023/06/28 07:25:32;;;;;;;6.72;3.67;;;19.40;66.00;;;17.84;87.45;96221.13;4980847;28;20030;-67
2023/06/28 07:27:58;;;;;;;4.75;3.47;;;19.40;65.90;;;17.88;87.59;96220.47;4967473;28;20066;-67
2023/06/28 07:30:24;;;;;;;7.15;3.35;;;19.60;65.30;;;17.96;87.98;96221.94;4954915;28;20042;-67
2023/06/28 07:32:52;;;;;;;7.25;3.42;;;19.60;65.80;;;18.08;87.61;96228.06;4971068;28;20563;-65
2023/06/28 07:35:17;;;;;;;7.20;3.35;;;19.90;65.70;;;18.17;87.83;96224.03;4972911;28;20054;-65
2023/06/28 07:37:43;;;;;;;6.25;3.10;;;20.00;64.70;;;18.21;85.83;96230.50;4976216;28;20030;-66
2023/06/28 07:40:10;;;;;;;7.00;3.58;;;20.00;63.60;;;18.27;85.08;96226.06;4977009;28;20038;-66
2023/06/28 07:42:37;;;;;;;7.65;5.72;;;20.10;64.00;;;18.41;85.72;96238.09;4978222;28;20138;-66
2023/06/28 07:45:03;;;;;;;7.60;3.20;;;20.30;64.50;;;18.54;85.39;96234.34;4966068;28;20038;-67
2023/06/28 07:47:29;;;;;;;4.47;3.38;;;20.50;63.60;;;18.68;84.79;96233.09;4968314;28;20034;-66
2023/06/28 07:49:55;;;;;;;5.80;3.60;;;20.70;62.20;;;18.74;85.26;96237.47;4982350;28;20041;-68
2023/06/28 07:52:20;;;;;;;5.70;3.00;;;20.70;62.70;;;18.88;84.52;96235.34;4965780;28;20030;-67
2023/06/28 07:54:46;;;;;;;6.57;3.22;;;21.00;61.90;;;18.97;83.83;96231.25;4980337;28;20477;-66
2023/06/28 07:57:12;;;;;;;5.55;3.13;;;21.00;61.60;;;19.13;82.29;96235.00;4957186;28;20540;-65
2023/06/28 07:59:37;;;;;;;6.35;2.95;;;21.30;60.80;;;19.24;82.14;96234.97;4975269;28;20613;-68
2023/06/28 08:02:04;;;;;;;7.57;3.10;;;21.30;61.00;;;19.38;82.02;96235.44;4975099;28;20502;-67
2023/06/28 08:04:29;;;;;;;5.68;2.97;;;21.60;60.10;;;19.52;79.49;96231.44;4979774;28;20417;-66
2023/06/28 08:06:55;;;;;;;6.25;3.10;;;21.70;58.20;;;19.64;79.66;96233.22;4996519;28;20050;-68
2023/06/28 08:09:21;;;;;;;5.50;2.90;;;21.50;59.00;;;19.71;79.41;96231.22;4968885;28;20098;-66
2023/06/28 08:11:47;;;;;;;6.80;3.03;;;21.80;60.00;;;19.83;77.46;96229.25;4975184;28;20118;-67
2023/06/28 08:14:13;;;;;;;5.95;2.90;;;21.80;57.40;;;19.94;77.21;96224.91;4976235;28;20649;-66
2023/06/28 08:16:39;;;;;;;5.03;2.85;;;22.10;57.20;;;20.03;77.32;96224.22;4973283;28;20042;-67
2023/06/28 08:19:05;;;;;;;6.47;3.20;;;22.10;58.00;;;20.07;74.97;96217.34;4983260;28;20043;-67
2023/06/28 08:21:30;;;;;;;5.10;3.17;;;21.80;56.50;;;20.08;75.73;96224.28;4963182;28;20034;-67
2023/06/28 08:23:56;;;;;;;5.72;3.30;;;21.90;58.00;;;20.14;74.60;96220.66;4979016;28;20062;-68
2023/06/28 08:26:22;;;;;;;5.40;2.63;;;21.80;57.60;;;20.16;74.79;96223.88;4982677;28;20038;-68
2023/06/28 08:28:48;;;;;;;6.55;3.05;;;22.00;57.80;;;20.19;74.48;96219.91;4974814;28;20445;-66
2023/06/28 08:31:14;;;;;;;6.05;2.67;;;22.10;56.80;;;20.28;73.74;96225.63;4956537;28;20026;-68
2023/06/28 08:33:40;;;;;;;5.53;2.80;;;22.30;57.00;;;20.38;73.54;96225.78;4958398;28;20038;-67
2023/06/28 08:36:06;;;;;;;6.95;5.00;;;22.50;56.10;;;20.46;73.38;96222.69;4992011;28;20026;-67
2023/06/28 08:38:31;;;;;;;12.77;9.55;;;22.60;56.00;;;20.61;73.28;96224.75;4990341;28;20113;-67
2023/06/28 08:40:57;;;;;;;5.63;3.63;;;22.80;55.20;;;20.75;72.22;96224.13;4965626;28;20051;-65
2023/06/28 08:43:23;;;;;;;5.35;2.90;;;22.80;54.60;;;20.84;71.68;96219.16;4987836;28;20042;-68
2023/06/28 08:45:49;;;;;;;6.03;3.10;;;23.10;54.50;;;20.99;71.39;96213.94;4957246;28;20030;-67
2023/06/28 08:48:14;;;;;;;4.72;2.38;;;23.40;54.60;;;21.15;71.25;96214.91;4943339;28;20042;-68
2023/06/28 08:50:41;;;;;;;5.15;2.45;;;23.70;53.40;;;21.30;69.63;96217.78;4958111;28;20031;-66
2023/06/28 08:53:10;;;;;;;8.35;3.03;;;23.90;51.90;;;21.58;69.65;96222.03;4963524;28;20030;-69
2023/06/28 08:55:41;;;;;;;4.57;2.35;;;24.50;50.70;;;21.90;67.73;96221.19;4963992;28;20030;-66
2023/06/28 08:58:07;;;;;;;5.65;2.67;;;24.90;50.40;;;22.12;67.57;96215.75;4949076;28;20621;-67
2023/06/28 09:00:33;;;;;;;7.40;2.13;;;24.70;49.10;;;22.31;66.65;96212.38;4978241;28;20025;-68
2023/06/28 09:02:59;;;;;;;6.32;2.45;;;25.00;49.00;;;22.42;65.25;96199.84;5005516;28;20064;-68
2023/06/28 09:05:24;;;;;;;4.43;2.60;;;24.80;48.50;;;22.45;64.68;96202.00;4957153;28;20451;-68
2023/06/28 09:07:51;;;;;;;3.53;2.15;;;24.80;48.80;;;22.47;63.50;96207.91;4958221;28;20576;-66
2023/06/28 09:10:17;;;;;;;5.50;2.50;;;24.50;49.00;;;22.47;62.67;96204.41;4959106;28;20026;-67
2023/06/28 09:12:43;;;;;;;6.30;2.22;;;24.60;48.20;;;22.54;62.80;96199.59;4962887;28;20044;-67
2023/06/28 09:15:10;;;;;;;6.50;2.38;;;24.60;48.30;;;22.64;63.06;96212.25;4960509;28;20039;-68
2023/06/28 09:17:35;;;;;;;2.88;2.10;;;24.90;49.10;;;22.77;62.48;96203.72;4956664;28;20026;-68
2023/06/28 09:20:14;;;;;;;3.80;2.03;;;25.30;48.20;;;23.01;58.88;96190.66;4978362;28;20058;-68
2023/06/28 09:22:40;;;;;;;6.68;2.00;;;25.80;45.50;;;23.19;59.85;96196.34;4972605;28;20105;-67
2023/06/28 09:25:05;;;;;;;5.22;2.45;;;25.70;44.40;;;23.29;58.18;96190.16;4980800;28;20124;-66
2023/06/28 09:27:31;;;;;;;5.72;3.97;;;25.60;44.00;;;23.48;57.48;96193.13;4992331;28;20116;-66
2023/06/28 09:30:00;;;;;;;5.28;3.63;;;26.30;43.90;;;23.70;55.61;96185.63;4996371;28;20034;-68
2023/06/28 09:32:39;;;;;;;4.40;2.25;;;26.60;42.80;;;24.05;53.16;96170.56;5007043;28;20518;-68
2023/06/28 09:35:11;;;;;;;4.78;1.92;;;27.30;41.40;;;24.25;53.01;96175.06;4974579;28;20041;-68
2023/06/28 09:37:38;;;;;;;7.00;1.83;;;27.00;41.80;;;24.23;54.21;96191.47;4988138;28;20113;-68
2023/06/28 09:40:06;;;;;;;7.00;2.00;;;26.50;41.90;;;24.20;53.74;96172.38;4976564;28;20027;-67
2023/06/28 09:42:34;;;;;;;2.75;1.90;;;26.40;41.80;;;24.21;53.02;96171.31;4979563;28;20030;-67
2023/06/28 09:45:00;;;;;;;4.82;2.05;;;26.30;41.80;;;24.17;53.27;96172.94;4982529;28;20040;-68
2023/06/28 09:47:32;;;;;;;5.60;2.05;;;26.50;42.60;;;24.20;51.67;96151.69;5008811;28;20483;-68
2023/06/28 09:50:00;;;;;;;4.95;1.90;;;26.70;41.90;;;24.46;50.92;96146.28;5000725;28;20053;-68
2023/06/28 09:52:26;;;;;;;3.85;1.73;;;27.20;39.70;;;24.73;52.37;96165.50;4972891;28;20042;-68
2023/06/28 09:54:52;;;;;;;4.47;1.80;;;28.10;40.10;;;25.06;51.58;96163.16;4975905;28;20499;-68
2023/06/28 09:57:18;;;;;;;3.72;1.90;;;28.30;39.00;;;25.45;50.44;96155.09;4964098;28;20132;-69
2023/06/28 09:59:44;;;;;;;6.15;2.10;;;29.10;38.20;;;25.83;49.05;96148.06;4940950;28;20124;-66
2023/06/28 10:02:10;;;;;;;4.35;1.88;;;29.50;34.90;;;26.10;48.29;96134.03;4976428;28;20037;-68
2023/06/28 10:04:37;;;;;;;5.90;1.88;;;29.70;35.60;;;26.47;48.28;96133.31;4985921;28;20406;-66
2023/06/28 10:07:04;;;;;;;4.13;1.67;;;30.20;35.30;;;26.60;46.70;96135.31;4987998;28;20665;-67
2023/06/28 10:09:37;;;;;;;5.97;1.90;;;29.80;34.20;;;26.71;43.19;96107.13;4981222;28;20034;-68
2023/06/28 10:12:24;;;;;;;5.13;1.70;;;30.50;33.70;;;26.86;43.48;96109.59;4986407;28;20518;-68
2023/06/28 10:15:06;;;;;;;5.22;1.80;;;30.60;33.60;;;27.25;43.25;96105.78;4974926;28;20088;-66